Aviation Digital Data Service (ADDS)

Output produced by TAFs form (1918 UTC 29 April 2017)
found at http://www.aviationweather.gov/adds/tafs/
 
KBJC 291845Z 34013KT 1SM -SN OVC007 M01/M02 A3018
KBJC 291759Z 2918/3018 36010KT 1SM -SN BR BKN005 OVC008 
     TEMPO 2918/2920 3SM -SN BR BKN008 OVC011 
     FM292000 36012KT P6SM -SN BKN012 OVC025 
     FM300100 34010KT P6SM SCT025 BKN035 
     FM300300 30010KT P6SM SCT040 BKN090 
     FM301000 28010KT P6SM SCT090